Time;durP1;ratioP1;P1;durP2;ratioP2;P2;SDS_P1;SDS_P2;PMS_P1;PMS_P2;Temp;Humidity;BMP_temperature;BMP_pressure;BME280_temperature;BME280_humidity;BME280_pressure;Samples;Min_cycle;Max_cycle;Signal;HPM_P1;HPM_P2
2023/09/11 00:02:00;;;;;;;22.17;12.77;;;23.50;99.90;;;;;;5070455;28;20052;-58
2023/09/11 00:04:25;;;;;;;19.45;12.15;;;23.60;99.90;;;;;;5070305;28;20041;-59
2023/09/11 00:06:51;;;;;;;20.45;12.35;;;23.50;99.90;;;;;;5069935;28;20032;-57
2023/09/11 00:09:17;;;;;;;25.15;12.50;;;23.50;99.90;;;;;;5071721;28;20036;-59
2023/09/11 00:11:42;;;;;;;22.60;12.48;;;23.50;99.90;;;;;;5071747;28;20476;-60
2023/09/11 00:14:08;;;;;;;23.77;12.77;;;23.40;99.90;;;;;;5071539;28;20032;-59
2023/09/11 00:16:34;;;;;;;19.83;11.43;;;23.40;99.90;;;;;;5072092;28;20048;-59
2023/09/11 00:18:59;;;;;;;19.13;12.20;;;23.40;99.90;;;;;;5071691;28;20072;-58
2023/09/11 00:21:25;;;;;;;21.48;12.35;;;23.40;99.90;;;;;;5071676;28;20119;-61
2023/09/11 00:23:51;;;;;;;21.75;12.38;;;23.30;99.90;;;;;;5071569;28;20223;-60
2023/09/11 00:26:16;;;;;;;19.27;12.27;;;23.30;99.90;;;;;;5071549;28;20036;-58
2023/09/11 00:28:42;;;;;;;18.75;11.93;;;23.30;99.90;;;;;;5070981;28;20153;-58
2023/09/11 00:31:08;;;;;;;20.08;12.77;;;23.30;99.90;;;;;;5071181;28;20028;-60
2023/09/11 00:33:33;;;;;;;23.98;13.02;;;23.20;99.90;;;;;;5071556;28;20033;-60
2023/09/11 00:35:59;;;;;;;23.30;12.85;;;23.20;99.90;;;;;;5071342;28;20033;-59
2023/09/11 00:38:25;;;;;;;22.42;13.05;;;23.20;99.90;;;;;;5070158;28;20043;-59
2023/09/11 00:40:51;;;;;;;21.48;13.25;;;23.10;99.90;;;;;;5071393;28;20098;-60
2023/09/11 00:43:17;;;;;;;23.88;12.65;;;23.10;99.90;;;;;;5071040;28;20052;-59
2023/09/11 00:45:43;;;;;;;25.85;13.52;;;23.10;99.90;;;;;;5071023;28;20039;-58
2023/09/11 00:48:11;;;;;;;22.55;13.50;;;23.00;99.90;;;;;;5069730;28;20446;-59
2023/09/11 00:50:36;;;;;;;24.67;13.88;;;23.00;99.90;;;;;;5069704;28;20043;-59
2023/09/11 00:53:06;;;;;;;25.17;13.10;;;23.00;99.90;;;;;;5069251;28;20032;-59
2023/09/11 00:55:32;;;;;;;23.77;13.55;;;22.90;99.90;;;;;;5071054;28;20037;-60
2023/09/11 00:57:58;;;;;;;26.23;13.15;;;22.90;99.90;;;;;;5071436;28;20036;-60
2023/09/11 01:00:23;;;;;;;20.55;13.43;;;22.90;99.90;;;;;;5070627;28;20323;-61
2023/09/11 01:02:49;;;;;;;23.02;14.30;;;22.90;99.90;;;;;;5071165;28;20434;-58
2023/09/11 01:05:15;;;;;;;24.20;13.65;;;22.80;99.90;;;;;;5069107;28;20090;-59
2023/09/11 01:07:41;;;;;;;23.55;13.32;;;22.80;99.90;;;;;;5070726;28;20066;-60
2023/09/11 01:10:09;;;;;;;21.05;14.23;;;22.70;99.90;;;;;;5071067;28;20072;-59
2023/09/11 01:12:36;;;;;;;22.75;13.52;;;22.70;99.90;;;;;;5071085;28;20112;-60
2023/09/11 01:15:05;;;;;;;20.27;13.70;;;22.70;99.90;;;;;;5070641;28;20032;-60
2023/09/11 01:17:42;;;;;;;22.08;14.20;;;22.60;99.90;;;;;;5070914;28;20044;-59
2023/09/11 01:20:14;;;;;;;26.63;13.98;;;22.60;99.90;;;;;;5070996;28;20391;-59
2023/09/11 01:23:08;;;;;;;20.75;13.60;;;22.60;99.90;;;;;;5071046;28;20044;-61
2023/09/11 01:26:06;;;;;;;22.92;13.98;;;22.50;99.90;;;;;;5070602;28;20507;-60
2023/09/11 01:28:40;;;;;;;19.50;13.35;;;22.50;99.90;;;;;;5049169;28;20045;-58
2023/09/11 01:31:07;;;;;;;17.90;13.30;;;22.50;99.90;;;;;;5070570;28;20109;-60
2023/09/11 01:33:33;;;;;;;21.55;14.05;;;22.50;99.90;;;;;;5070908;28;20398;-59
2023/09/11 01:35:59;;;;;;;23.23;13.25;;;22.50;99.90;;;;;;5070842;28;20102;-61
2023/09/11 01:38:25;;;;;;;21.08;13.65;;;22.50;99.90;;;;;;5067101;28;20476;-58
2023/09/11 01:40:54;;;;;;;21.85;14.32;;;22.40;99.90;;;;;;5070930;28;20112;-60
2023/09/11 01:43:21;;;;;;;22.67;14.25;;;22.40;99.90;;;;;;5069364;28;20036;-59
2023/09/11 01:45:48;;;;;;;25.33;15.07;;;22.40;99.90;;;;;;5070442;28;20388;-60
2023/09/11 01:48:14;;;;;;;25.92;15.20;;;22.40;99.90;;;;;;5070259;28;20052;-60
2023/09/11 01:50:41;;;;;;;22.70;13.88;;;22.40;99.90;;;;;;5070345;28;20037;-59
2023/09/11 01:53:07;;;;;;;20.40;14.48;;;22.30;99.90;;;;;;5070014;28;20066;-59
2023/09/11 01:55:34;;;;;;;26.77;14.18;;;22.30;99.90;;;;;;5070112;28;20045;-58
2023/09/11 01:58:00;;;;;;;20.15;15.55;;;22.30;99.90;;;;;;5070580;28;20047;-59
2023/09/11 02:00:26;;;;;;;22.10;13.75;;;22.20;99.90;;;;;;5069549;28;20101;-61
2023/09/11 02:02:55;;;;;;;20.55;14.27;;;22.20;99.90;;;;;;5068771;28;20048;-60
2023/09/11 02:05:23;;;;;;;24.27;15.30;;;22.20;99.90;;;;;;5072320;28;20559;-59
2023/09/11 02:07:49;;;;;;;22.95;14.48;;;22.10;99.90;;;;;;5072100;28;20068;-61
2023/09/11 02:10:16;;;;;;;23.08;15.00;;;22.10;99.90;;;;;;5073633;28;20084;-61
2023/09/11 02:12:41;;;;;;;25.25;15.55;;;22.00;99.90;;;;;;5074004;28;20078;-60
2023/09/11 02:15:07;;;;;;;26.33;15.75;;;22.00;99.90;;;;;;5072514;28;20033;-59
2023/09/11 02:17:33;;;;;;;22.60;14.73;;;22.00;99.90;;;;;;5073665;28;20063;-60
2023/09/11 02:19:59;;;;;;;23.13;15.45;;;22.00;99.90;;;;;;5072434;28;20135;-58
2023/09/11 02:22:24;;;;;;;23.33;14.93;;;21.90;99.90;;;;;;5073827;28;20516;-59
2023/09/11 02:24:50;;;;;;;22.23;15.30;;;21.90;99.90;;;;;;5073543;28;20496;-60
2023/09/11 02:27:16;;;;;;;26.10;15.32;;;21.90;99.90;;;;;;5073184;28;20078;-59
2023/09/11 02:29:41;;;;;;;20.33;15.90;;;21.80;99.90;;;;;;5073359;28;20383;-60
2023/09/11 02:32:07;;;;;;;26.73;16.48;;;21.90;99.90;;;;;;5071345;28;20033;-58
2023/09/11 02:34:33;;;;;;;28.02;16.63;;;21.80;99.90;;;;;;5073686;28;21356;-59
2023/09/11 02:36:58;;;;;;;26.45;16.05;;;21.80;99.90;;;;;;5071969;28;20403;-60
2023/09/11 02:39:24;;;;;;;24.30;16.13;;;21.80;99.90;;;;;;5073262;28;20423;-59
2023/09/11 02:41:50;;;;;;;26.52;16.45;;;21.70;99.90;;;;;;5071796;28;20045;-59
2023/09/11 02:44:15;;;;;;;28.67;17.65;;;21.70;99.90;;;;;;5073448;28;20055;-58
2023/09/11 02:46:43;;;;;;;23.58;16.65;;;21.70;99.90;;;;;;5071890;28;20191;-60
2023/09/11 02:49:08;;;;;;;21.30;15.43;;;21.60;99.90;;;;;;5072969;28;20051;-59
2023/09/11 02:51:34;;;;;;;24.80;16.45;;;21.60;99.90;;;;;;5073101;28;20025;-59
2023/09/11 02:54:00;;;;;;;24.08;16.15;;;21.60;99.90;;;;;;5072676;28;20036;-60
2023/09/11 02:56:26;;;;;;;24.40;15.35;;;21.60;99.90;;;;;;5072945;28;20509;-59
2023/09/11 02:58:52;;;;;;;27.58;16.30;;;21.50;99.90;;;;;;5073069;28;20033;-59
2023/09/11 03:01:18;;;;;;;24.67;16.38;;;21.50;99.90;;;;;;5071626;28;20047;-59
2023/09/11 03:03:44;;;;;;;23.73;16.15;;;21.50;99.90;;;;;;5072637;28;20048;-59
2023/09/11 03:06:10;;;;;;;26.38;16.50;;;21.50;99.90;;;;;;5072005;28;20037;-58
2023/09/11 03:08:36;;;;;;;24.67;15.90;;;21.50;99.90;;;;;;5070953;28;20404;-58
2023/09/11 03:11:09;;;;;;;23.50;16.23;;;21.50;99.90;;;;;;5072763;28;20090;-59
2023/09/11 03:13:36;;;;;;;22.40;15.93;;;21.40;99.90;;;;;;5072938;28;20044;-60
2023/09/11 03:16:12;;;;;;;25.20;15.95;;;21.40;99.90;;;;;;5072645;28;20071;-59
2023/09/11 03:18:38;;;;;;;25.15;16.42;;;21.40;99.90;;;;;;5071040;28;20036;-59
2023/09/11 03:21:05;;;;;;;25.20;16.10;;;21.40;99.90;;;;;;5072848;28;20111;-60
2023/09/11 03:23:31;;;;;;;22.48;15.35;;;21.40;99.90;;;;;;5072645;28;20488;-59
2023/09/11 03:25:57;;;;;;;21.65;16.55;;;21.30;99.90;;;;;;5072816;28;20039;-59
2023/09/11 03:28:26;;;;;;;25.70;16.85;;;21.40;99.90;;;;;;5072231;28;20450;-61
2023/09/11 03:30:52;;;;;;;25.58;17.00;;;21.30;99.90;;;;;;5071250;28;20094;-61
2023/09/11 03:33:18;;;;;;;23.92;16.42;;;21.30;99.90;;;;;;5071978;28;20496;-60
2023/09/11 03:35:46;;;;;;;24.08;16.25;;;21.30;99.90;;;;;;5072462;28;20036;-58
2023/09/11 03:38:12;;;;;;;26.08;16.65;;;21.30;99.90;;;;;;5072074;28;20075;-60
2023/09/11 03:40:38;;;;;;;25.77;16.95;;;21.30;99.90;;;;;;5070773;28;20048;-60
2023/09/11 03:43:04;;;;;;;23.30;15.55;;;21.20;99.90;;;;;;5072133;28;20047;-58
2023/09/11 03:45:30;;;;;;;28.92;16.40;;;21.30;99.90;;;;;;5071766;28;20041;-60
2023/09/11 03:47:56;;;;;;;23.95;15.98;;;21.30;99.90;;;;;;5070437;28;20040;-60
2023/09/11 03:50:21;;;;;;;21.65;15.10;;;21.20;99.90;;;;;;5071970;28;20086;-60
2023/09/11 03:52:47;;;;;;;26.35;16.63;;;21.20;99.90;;;;;;5071368;28;20064;-59
2023/09/11 03:55:13;;;;;;;23.38;15.93;;;21.20;99.90;;;;;;5071819;28;20033;-59
2023/09/11 03:57:39;;;;;;;28.00;16.23;;;21.20;99.90;;;;;;5071806;28;20045;-60
2023/09/11 04:00:08;;;;;;;22.05;15.40;;;21.20;99.90;;;;;;5071082;28;20076;-60
2023/09/11 04:02:34;;;;;;;28.95;15.93;;;21.30;99.90;;;;;;5071989;28;20519;-59
2023/09/11 04:05:00;;;;;;;27.60;15.50;;;21.20;99.90;;;;;;5071630;28;20037;-60
2023/09/11 04:07:26;;;;;;;25.80;15.82;;;21.20;99.90;;;;;;5071760;28;20040;-59
2023/09/11 04:09:51;;;;;;;23.40;15.23;;;21.20;99.90;;;;;;5071697;28;20076;-60
2023/09/11 04:12:17;;;;;;;24.38;16.63;;;21.20;99.90;;;;;;5070577;28;20119;-61
2023/09/11 04:14:43;;;;;;;25.80;16.25;;;21.20;99.90;;;;;;5071421;28;20040;-60
2023/09/11 04:17:10;;;;;;;23.13;14.90;;;21.20;99.90;;;;;;5070196;28;20499;-59
2023/09/11 04:19:39;;;;;;;20.40;14.88;;;21.20;99.90;;;;;;5070140;28;20521;-59
2023/09/11 04:22:08;;;;;;;24.25;16.08;;;21.20;99.90;;;;;;5071702;28;20090;-59
2023/09/11 04:24:34;;;;;;;23.25;16.15;;;21.10;99.90;;;;;;5071046;28;20048;-61
2023/09/11 04:27:00;;;;;;;26.05;16.70;;;21.20;99.90;;;;;;5070192;28;20043;-60
2023/09/11 04:29:26;;;;;;;28.27;15.73;;;21.10;99.90;;;;;;5068925;28;20032;-59
2023/09/11 04:31:52;;;;;;;27.48;17.33;;;21.10;99.90;;;;;;5071075;28;20036;-59
2023/09/11 04:34:18;;;;;;;27.92;17.60;;;21.10;99.90;;;;;;5069992;28;20122;-61
2023/09/11 04:36:43;;;;;;;25.50;16.08;;;21.10;99.90;;;;;;5071063;28;20491;-60
2023/09/11 04:39:11;;;;;;;24.17;16.15;;;21.00;99.90;;;;;;5071149;28;20037;-59
2023/09/11 04:41:37;;;;;;;26.73;17.27;;;21.10;99.90;;;;;;5071082;28;20098;-63
2023/09/11 04:44:03;;;;;;;24.67;17.10;;;21.10;99.90;;;;;;5071121;28;20032;-61
2023/09/11 04:46:29;;;;;;;27.23;16.58;;;21.10;99.90;;;;;;5069572;28;20033;-60
2023/09/11 04:48:55;;;;;;;27.73;17.08;;;21.00;99.90;;;;;;5069466;28;20123;-60
2023/09/11 04:51:21;;;;;;;26.52;16.23;;;21.00;99.90;;;;;;5070969;28;20082;-60
2023/09/11 04:53:47;;;;;;;27.08;17.65;;;21.00;99.90;;;;;;5070143;28;20032;-58
2023/09/11 04:56:14;;;;;;;21.75;16.45;;;21.00;99.90;;;;;;5070767;28;20098;-59
2023/09/11 04:58:40;;;;;;;27.60;17.58;;;21.00;99.90;;;;;;5071336;28;20055;-60
2023/09/11 05:01:05;;;;;;;24.83;17.38;;;21.00;99.90;;;;;;5070271;28;20048;-59
2023/09/11 05:03:31;;;;;;;24.55;16.65;;;21.00;99.90;;;;;;5071028;28;20488;-59
2023/09/11 05:05:57;;;;;;;27.17;16.98;;;20.90;99.90;;;;;;5070671;28;20036;-60
2023/09/11 05:08:22;;;;;;;24.77;17.15;;;20.90;99.90;;;;;;5071017;28;20122;-60
2023/09/11 05:10:48;;;;;;;19.88;17.05;;;20.90;99.90;;;;;;5070877;28;20467;-59
2023/09/11 05:13:14;;;;;;;30.50;16.90;;;20.90;99.90;;;;;;5069708;28;20082;-60
2023/09/11 05:15:40;;;;;;;28.02;17.10;;;20.80;99.90;;;;;;5070360;28;20126;-59
2023/09/11 05:18:06;;;;;;;27.15;18.42;;;20.90;99.90;;;;;;5070474;28;20159;-60
2023/09/11 05:20:32;;;;;;;26.40;17.50;;;20.80;99.90;;;;;;5070887;28;20040;-60
2023/09/11 05:22:57;;;;;;;24.77;18.27;;;20.80;99.90;;;;;;5070832;28;20047;-59
2023/09/11 05:25:23;;;;;;;26.90;17.70;;;20.80;99.90;;;;;;5069249;28;20115;-59
2023/09/11 05:27:50;;;;;;;23.95;17.92;;;20.80;99.90;;;;;;5070746;28;20040;-61
2023/09/11 05:30:16;;;;;;;30.83;18.92;;;20.90;99.90;;;;;;5069263;28;20559;-59
2023/09/11 05:32:41;;;;;;;27.45;18.63;;;20.80;99.90;;;;;;5070366;28;20108;-59
2023/09/11 05:35:07;;;;;;;30.92;18.42;;;20.80;99.90;;;;;;5070726;28;20100;-60
2023/09/11 05:37:33;;;;;;;26.33;17.80;;;20.80;99.90;;;;;;5070251;28;20045;-60
2023/09/11 05:40:00;;;;;;;28.23;18.98;;;20.80;99.90;;;;;;5071708;28;20036;-61
2023/09/11 05:42:26;;;;;;;27.98;18.95;;;20.80;99.90;;;;;;5073863;28;20040;-60
2023/09/11 05:44:52;;;;;;;23.77;18.67;;;20.90;99.90;;;;;;5074596;28;20036;-59
2023/09/11 05:47:18;;;;;;;25.08;19.35;;;20.90;99.90;;;;;;5074440;28;20036;-60
2023/09/11 05:49:43;;;;;;;25.60;19.27;;;20.90;99.90;;;;;;5074551;28;20033;-62
2023/09/11 05:52:09;;;;;;;31.75;18.73;;;20.90;99.90;;;;;;5074092;28;20078;-60
2023/09/11 05:54:35;;;;;;;25.23;19.48;;;21.00;99.90;;;;;;5073922;28;20094;-61
2023/09/11 05:57:03;;;;;;;28.40;19.00;;;21.00;99.90;;;;;;5074307;28;20040;-60
2023/09/11 05:59:29;;;;;;;33.05;20.27;;;21.00;99.90;;;;;;5073877;28;20055;-60
2023/09/11 06:01:55;;;;;;;24.00;19.10;;;21.00;99.90;;;;;;5072672;28;20049;-59
2023/09/11 06:04:20;;;;;;;30.83;19.08;;;21.10;99.90;;;;;;5074203;28;20040;-61
2023/09/11 06:06:46;;;;;;;25.10;18.88;;;21.10;99.90;;;;;;5073981;28;20037;-59
2023/09/11 06:09:12;;;;;;;24.58;19.13;;;21.20;99.90;;;;;;5073496;28;20043;-59
2023/09/11 06:11:38;;;;;;;29.38;19.80;;;21.20;99.90;;;;;;5074008;28;20085;-59
2023/09/11 06:14:05;;;;;;;25.92;20.45;;;21.30;99.90;;;;;;5073801;28;20091;-58
2023/09/11 06:16:31;;;;;;;29.55;21.45;;;21.30;99.90;;;;;;5074065;28;20135;-59
2023/09/11 06:19:00;;;;;;;29.05;20.80;;;21.40;99.90;;;;;;5072710;28;20450;-60
2023/09/11 06:21:26;;;;;;;25.92;19.77;;;21.40;99.90;;;;;;5073854;28;20029;-61
2023/09/11 06:23:52;;;;;;;27.90;20.95;;;21.50;99.90;;;;;;5073672;28;20119;-60
2023/09/11 06:26:18;;;;;;;29.65;21.48;;;21.60;99.90;;;;;;5073519;28;20124;-60
2023/09/11 06:28:44;;;;;;;28.75;20.52;;;21.70;99.90;;;;;;5072750;28;20036;-62
2023/09/11 06:31:10;;;;;;;26.05;20.55;;;21.70;99.90;;;;;;5072581;28;20047;-61
2023/09/11 06:33:36;;;;;;;28.80;20.70;;;21.70;99.90;;;;;;5073032;28;20036;-61
2023/09/11 06:36:03;;;;;;;29.05;20.33;;;21.80;99.90;;;;;;5073205;28;20537;-60
2023/09/11 06:38:29;;;;;;;28.13;21.45;;;21.80;99.90;;;;;;5072814;28;20032;-59
2023/09/11 06:40:54;;;;;;;28.77;20.25;;;21.90;99.90;;;;;;5073572;28;20373;-59
2023/09/11 06:43:20;;;;;;;26.27;20.88;;;22.00;99.90;;;;;;5073381;28;20050;-61
2023/09/11 06:45:51;;;;;;;25.30;21.05;;;22.00;99.90;;;;;;5071818;28;20052;-60
2023/09/11 06:48:16;;;;;;;27.23;20.13;;;22.10;99.90;;;;;;5071593;28;20082;-59
2023/09/11 06:50:42;;;;;;;28.70;20.75;;;22.00;99.90;;;;;;5072767;28;20040;-59
2023/09/11 06:53:10;;;;;;;31.17;21.33;;;22.10;99.90;;;;;;5072290;28;20040;-62
2023/09/11 06:55:36;;;;;;;28.40;20.38;;;22.10;99.90;;;;;;5073094;28;20491;-61
2023/09/11 06:58:02;;;;;;;25.58;20.40;;;22.20;99.90;;;;;;5070737;28;20147;-60
2023/09/11 07:00:28;;;;;;;25.52;20.17;;;22.20;99.90;;;;;;5072141;28;20139;-62
2023/09/11 07:02:56;;;;;;;30.35;20.95;;;22.30;99.90;;;;;;5069320;28;20058;-60
2023/09/11 07:05:22;;;;;;;28.33;20.30;;;22.30;99.90;;;;;;5068156;28;20080;-60
2023/09/11 07:07:48;;;;;;;26.02;20.83;;;22.40;99.90;;;;;;5068898;28;20039;-60
2023/09/11 07:10:15;;;;;;;24.80;20.77;;;22.30;99.90;;;;;;5071862;28;20036;-59
2023/09/11 07:12:44;;;;;;;22.63;19.70;;;22.40;99.90;;;;;;5072752;28;20048;-59
2023/09/11 07:15:10;;;;;;;26.48;20.05;;;22.40;99.90;;;;;;5072141;28;20499;-59
2023/09/11 07:17:36;;;;;;;30.95;20.52;;;22.50;99.90;;;;;;5068835;28;20079;-61
2023/09/11 07:20:04;;;;;;;25.17;19.77;;;22.60;99.90;;;;;;5070550;28;20553;-58
2023/09/11 07:22:30;;;;;;;28.55;19.70;;;22.60;99.90;;;;;;5072050;28;20041;-59
2023/09/11 07:24:56;;;;;;;23.10;18.95;;;22.60;99.90;;;;;;5071633;28;20054;-61
2023/09/11 07:27:22;;;;;;;25.75;19.23;;;22.60;99.90;;;;;;5061059;28;20044;-60
2023/09/11 07:29:51;;;;;;;23.65;18.60;;;22.70;99.90;;;;;;5068349;28;20045;-62
2023/09/11 07:32:16;;;;;;;26.25;18.92;;;22.70;99.90;;;;;;5067345;28;20040;-59
2023/09/11 07:34:42;;;;;;;22.88;18.55;;;22.80;99.90;;;;;;5069759;28;20037;-61
2023/09/11 07:37:08;;;;;;;23.02;18.50;;;22.80;99.90;;;;;;5070685;28;20072;-59
2023/09/11 07:39:34;;;;;;;25.77;18.90;;;22.90;99.90;;;;;;5070932;28;20079;-59
2023/09/11 07:41:59;;;;;;;24.00;19.80;;;23.00;99.90;;;;;;5069734;28;20056;-60
2023/09/11 07:44:25;;;;;;;28.13;20.23;;;23.00;99.90;;;;;;5070942;28;20028;-60
2023/09/11 07:46:51;;;;;;;27.55;20.27;;;23.00;99.90;;;;;;5070828;28;20511;-62
2023/09/11 07:49:16;;;;;;;26.88;20.85;;;23.00;99.90;;;;;;5069159;28;20044;-59
2023/09/11 07:51:42;;;;;;;27.38;19.73;;;23.00;99.90;;;;;;5070178;28;20081;-63
2023/09/11 07:54:08;;;;;;;26.60;21.08;;;23.10;99.90;;;;;;5068987;28;20039;-59
2023/09/11 07:56:33;;;;;;;25.33;20.15;;;23.10;99.90;;;;;;5069598;28;20033;-60
2023/09/11 07:59:01;;;;;;;27.10;20.83;;;23.20;99.90;;;;;;5070142;28;20123;-58
2023/09/11 08:01:27;;;;;;;26.20;20.67;;;23.20;99.90;;;;;;5068107;28;20402;-58
2023/09/11 08:03:53;;;;;;;25.85;21.20;;;23.20;99.90;;;;;;5069334;28;20087;-60
2023/09/11 08:06:22;;;;;;;25.25;21.05;;;23.30;99.90;;;;;;5070232;28;20048;-60
2023/09/11 08:08:48;;;;;;;27.20;19.40;;;23.40;99.90;;;;;;5069698;28;20043;-59
2023/09/11 08:11:16;;;;;;;26.58;19.25;;;23.40;99.90;;;;;;5068933;28;20044;-60
2023/09/11 08:13:43;;;;;;;30.65;20.08;;;23.50;99.90;;;;;;5070164;28;20048;-59
2023/09/11 08:16:09;;;;;;;22.98;18.80;;;23.50;99.90;;;;;;5068215;28;20042;-61
2023/09/11 08:18:35;;;;;;;22.40;18.45;;;23.60;99.90;;;;;;5069210;28;20041;-60
2023/09/11 08:21:00;;;;;;;26.25;20.08;;;23.60;99.90;;;;;;5068750;28;20407;-61
2023/09/11 08:23:26;;;;;;;24.45;19.73;;;23.60;99.90;;;;;;5069786;28;20036;-60
2023/09/11 08:25:56;;;;;;;25.48;18.85;;;23.70;99.90;;;;;;5068719;28;20477;-59
2023/09/11 08:28:22;;;;;;;23.95;18.17;;;23.80;99.90;;;;;;5069122;28;20028;-59
2023/09/11 08:30:50;;;;;;;18.98;15.25;;;23.90;99.90;;;;;;5068419;28;20086;-59
2023/09/11 08:33:16;;;;;;;18.52;14.15;;;24.00;99.90;;;;;;5068883;28;20028;-59
2023/09/11 08:35:42;;;;;;;20.27;13.98;;;24.10;99.90;;;;;;5065726;28;20101;-60
2023/09/11 08:38:09;;;;;;;19.83;14.10;;;24.10;99.90;;;;;;5067890;28;20099;-60
2023/09/11 08:40:34;;;;;;;16.40;14.52;;;24.20;99.90;;;;;;5067667;28;20039;-59
2023/09/11 08:43:02;;;;;;;20.00;14.05;;;24.30;99.90;;;;;;5064541;28;20042;-60
2023/09/11 08:45:28;;;;;;;20.35;14.10;;;24.40;99.90;;;;;;5069232;28;20040;-60
2023/09/11 08:47:58;;;;;;;19.23;14.23;;;24.50;99.90;;;;;;5062481;28;20381;-60
2023/09/11 08:50:35;;;;;;;18.00;13.55;;;24.60;99.90;;;;;;5065948;28;20758;-58
2023/09/11 08:53:01;;;;;;;17.85;13.40;;;24.70;99.90;;;;;;5068396;28;20529;-59
2023/09/11 08:55:28;;;;;;;15.45;13.07;;;24.80;99.90;;;;;;5065972;28;20040;-60
2023/09/11 08:57:57;;;;;;;15.73;12.68;;;24.90;99.90;;;;;;5068714;28;20170;-60
2023/09/11 09:00:24;;;;;;;17.60;14.07;;;25.10;99.90;;;;;;5065834;28;20044;-60
2023/09/11 09:02:51;;;;;;;19.17;13.45;;;25.20;99.90;;;;;;5067921;28;20569;-59
2023/09/11 09:05:19;;;;;;;17.20;14.13;;;25.30;99.90;;;;;;5069137;28;20040;-58
2023/09/11 09:07:45;;;;;;;18.48;13.00;;;25.40;99.90;;;;;;5068114;28;20064;-58
2023/09/11 09:10:11;;;;;;;19.17;13.43;;;25.50;99.90;;;;;;5067876;28;20036;-59
2023/09/11 09:12:39;;;;;;;22.15;14.40;;;25.60;99.90;;;;;;5067588;28;20044;-58
2023/09/11 09:15:06;;;;;;;20.67;13.25;;;25.70;99.90;;;;;;5072301;28;20072;-60
2023/09/11 09:17:32;;;;;;;22.52;13.13;;;25.80;99.90;;;;;;5074174;28;20418;-61
2023/09/11 09:19:57;;;;;;;16.48;12.70;;;25.80;99.90;;;;;;5075642;28;20048;-59
2023/09/11 09:22:23;;;;;;;23.20;14.60;;;25.90;99.90;;;;;;5074885;28;20036;-59
2023/09/11 09:24:54;;;;;;;21.00;13.00;;;26.00;99.90;;;;;;5075250;28;20048;-60
2023/09/11 09:27:22;;;;;;;17.77;13.50;;;26.20;99.90;;;;;;5074160;28;20129;-59
2023/09/11 09:29:48;;;;;;;20.95;13.23;;;26.20;99.90;;;;;;5075848;28;20115;-60
2023/09/11 09:32:15;;;;;;;17.15;12.43;;;26.30;99.90;;;;;;5076491;28;20135;-58
2023/09/11 09:34:50;;;;;;;16.48;12.63;;;26.30;99.90;;;;;;5076643;28;20047;-58
2023/09/11 09:37:17;;;;;;;17.55;12.25;;;26.40;99.90;;;;;;5076768;28;20044;-62
2023/09/11 09:39:44;;;;;;;19.90;12.70;;;26.50;99.90;;;;;;5076197;28;20039;-62
2023/09/11 09:42:10;;;;;;;22.30;14.13;;;26.50;99.90;;;;;;5077079;28;20070;-62
2023/09/11 09:44:45;;;;;;;20.83;13.68;;;26.60;99.90;;;;;;5077331;28;20047;-59
2023/09/11 09:47:13;;;;;;;22.27;14.40;;;26.60;99.90;;;;;;5077375;28;20115;-61
2023/09/11 09:49:49;;;;;;;19.27;14.57;;;26.60;99.90;;;;;;5077334;28;20500;-59
2023/09/11 09:52:17;;;;;;;16.70;12.32;;;26.70;99.90;;;;;;5077376;28;20497;-59
2023/09/11 09:54:50;;;;;;;20.05;13.40;;;26.80;99.90;;;;;;5077160;28;20040;-58
2023/09/11 09:57:17;;;;;;;18.70;14.05;;;26.80;99.90;;;;;;5074963;28;20040;-61
2023/09/11 09:59:48;;;;;;;22.17;13.73;;;26.80;99.90;;;;;;5075449;28;20036;-60
2023/09/11 10:02:14;;;;;;;22.17;13.75;;;26.80;99.90;;;;;;5076301;28;20044;-62
2023/09/11 10:04:40;;;;;;;20.45;13.57;;;26.80;99.90;;;;;;5076863;28;20123;-60
2023/09/11 10:07:06;;;;;;;17.33;13.98;;;26.80;99.90;;;;;;5077028;28;20123;-60
2023/09/11 10:09:34;;;;;;;18.30;14.48;;;26.80;99.90;;;;;;5077150;28;20531;-60
2023/09/11 10:12:09;;;;;;;19.00;14.60;;;26.80;99.90;;;;;;5076856;28;20072;-62
2023/09/11 10:14:34;;;;;;;18.85;13.40;;;26.90;99.90;;;;;;5076962;28;20039;-61
2023/09/11 10:17:01;;;;;;;21.90;14.50;;;26.90;99.90;;;;;;5076693;28;20048;-60
2023/09/11 10:19:29;;;;;;;23.02;13.32;;;26.90;99.90;;;;;;5076946;28;20048;-62
2023/09/11 10:21:54;;;;;;;18.30;13.93;;;27.00;99.90;;;;;;5076633;28;20072;-59
2023/09/11 10:24:20;;;;;;;18.42;14.65;;;27.10;99.90;;;;;;5077133;28;20074;-62
2023/09/11 10:27:02;;;;;;;23.00;13.77;;;27.10;99.90;;;;;;5074800;28;20071;-59
2023/09/11 10:29:40;;;;;;;20.88;13.23;;;27.20;99.90;;;;;;5073364;28;20043;-61
2023/09/11 10:32:13;;;;;;;18.42;14.02;;;27.40;99.90;;;;;;5073183;28;20032;-60
2023/09/11 10:34:40;;;;;;;19.73;13.70;;;27.40;99.90;;;;;;5073777;28;20436;-59
2023/09/11 10:37:06;;;;;;;18.88;12.70;;;27.40;99.90;;;;;;5073729;28;20438;-60
2023/09/11 10:39:35;;;;;;;17.42;12.85;;;27.50;99.90;;;;;;5073372;28;20395;-61
2023/09/11 10:42:00;;;;;;;20.10;13.30;;;27.60;99.90;;;;;;5073355;28;20475;-61
2023/09/11 10:44:28;;;;;;;17.23;12.02;;;27.70;99.90;;;;;;5073086;28;20048;-60
2023/09/11 10:46:54;;;;;;;19.08;12.00;;;27.80;99.90;;;;;;5073649;28;20040;-60
2023/09/11 10:49:24;;;;;;;16.20;10.65;;;27.80;99.90;;;;;;5073653;28;20043;-63
2023/09/11 10:51:50;;;;;;;15.00;9.43;;;28.00;99.90;;;;;;5073314;28;20036;-59
2023/09/11 10:54:20;;;;;;;18.23;10.98;;;28.00;99.90;;;;;;5055046;28;20040;-61
2023/09/11 10:56:48;;;;;;;17.58;11.77;;;28.20;99.90;;;;;;5073012;28;20043;-62
2023/09/11 10:59:15;;;;;;;12.90;9.02;;;28.20;99.90;;;;;;5073063;28;20136;-59
2023/09/11 11:01:43;;;;;;;14.00;9.05;;;28.30;99.90;;;;;;5071228;28;20680;-59
2023/09/11 11:04:14;;;;;;;15.60;9.27;;;28.40;99.90;;;;;;5073280;28;20246;-60
2023/09/11 11:06:48;;;;;;;12.80;9.23;;;28.50;99.90;;;;;;5073104;28;20036;-60
2023/09/11 11:09:24;;;;;;;13.07;9.13;;;28.60;99.90;;;;;;5072082;28;20052;-58
2023/09/11 11:11:49;;;;;;;14.75;9.80;;;28.60;99.90;;;;;;5070960;28;20032;-61
2023/09/11 11:14:21;;;;;;;19.63;10.40;;;28.70;99.90;;;;;;5072595;28;20032;-61
2023/09/11 11:17:06;;;;;;;16.35;10.50;;;28.80;99.90;;;;;;5071344;28;20040;-59
2023/09/11 11:19:37;;;;;;;19.70;9.27;;;28.90;99.90;;;;;;5072749;28;20055;-61
2023/09/11 11:22:06;;;;;;;13.23;9.07;;;28.90;99.90;;;;;;5070900;28;20087;-61
2023/09/11 11:24:34;;;;;;;15.57;9.60;;;29.00;99.90;;;;;;5072814;28;20063;-60
2023/09/11 11:27:03;;;;;;;12.80;7.95;;;29.20;99.90;;;;;;5072724;28;20476;-59
2023/09/11 11:29:29;;;;;;;16.60;9.70;;;29.10;99.90;;;;;;5070850;28;20075;-60
2023/09/11 11:31:58;;;;;;;17.23;10.65;;;29.30;99.90;;;;;;5071544;28;20464;-61
2023/09/11 11:34:28;;;;;;;13.35;8.40;;;29.40;99.90;;;;;;5067391;28;20091;-61
2023/09/11 11:36:57;;;;;;;11.85;7.60;;;29.40;99.90;;;;;;5070411;28;20079;-61
2023/09/11 11:39:24;;;;;;;12.88;6.72;;;29.40;99.90;;;;;;5069925;28;20036;-60
2023/09/11 11:41:51;;;;;;;9.75;7.13;;;29.60;99.90;;;;;;5071617;28;20044;-60
2023/09/11 11:44:18;;;;;;;17.40;7.25;;;29.70;99.90;;;;;;5071864;28;20495;-64
2023/09/11 11:46:45;;;;;;;12.40;5.65;;;29.70;99.90;;;;;;5068220;28;20049;-62
2023/09/11 11:49:11;;;;;;;9.25;5.65;;;29.80;99.90;;;;;;5064606;28;20037;-62
2023/09/11 11:51:36;;;;;;;9.45;4.40;;;29.80;99.90;;;;;;5069924;28;20422;-61
2023/09/11 11:54:04;;;;;;;8.70;3.15;;;29.80;99.90;;;;;;5052213;28;20437;-59
2023/09/11 11:56:30;;;;;;;7.25;2.97;;;29.70;99.90;;;;;;5068341;28;20036;-61
2023/09/11 11:58:57;;;;;;;5.93;3.13;;;29.70;99.90;;;;;;5068178;28;20079;-61
2023/09/11 12:01:23;;;;;;;9.23;3.75;;;29.70;99.90;;;;;;5068600;28;20059;-59
2023/09/11 12:03:50;;;;;;;9.32;3.40;;;29.80;99.90;;;;;;5069243;28;20040;-61
2023/09/11 12:06:16;;;;;;;8.88;3.65;;;29.90;99.90;;;;;;5068718;28;20170;-61
2023/09/11 12:08:46;;;;;;;9.70;3.35;;;30.00;99.90;;;;;;5066513;28;20131;-61
2023/09/11 12:11:12;;;;;;;7.82;3.20;;;30.10;99.90;;;;;;5067796;28;20040;-61
2023/09/11 12:13:37;;;;;;;6.88;3.25;;;30.20;99.90;;;;;;5066187;28;20059;-60
2023/09/11 12:16:03;;;;;;;5.50;3.25;;;30.20;99.80;;;;;;5068294;28;20407;-60
2023/09/11 12:18:30;;;;;;;9.50;3.58;;;30.30;99.30;;;;;;5067792;28;20464;-61
2023/09/11 12:21:02;;;;;;;7.75;3.72;;;30.20;99.20;;;;;;5067953;28;20041;-61
2023/09/11 12:23:29;;;;;;;14.90;5.07;;;30.20;99.10;;;;;;5069377;28;20041;-60
2023/09/11 12:25:55;;;;;;;6.78;4.10;;;30.30;99.10;;;;;;5069748;28;20044;-60
2023/09/11 12:28:22;;;;;;;9.75;3.65;;;30.40;99.70;;;;;;5064912;28;20071;-61